createdAt,value
2023-05-02T00:01:36.162Z,100488.94
2023-05-02T00:04:02.779Z,100488.81
2023-05-02T00:06:31.758Z,100493.06
2023-05-02T00:08:58.647Z,100487.09
2023-05-02T00:11:25.255Z,100481.56
2023-05-02T00:13:51.973Z,100481.78
2023-05-02T00:16:18.527Z,100486.88
2023-05-02T00:18:45.041Z,100484.84
2023-05-02T00:21:11.531Z,100485.81
2023-05-02T00:23:41.072Z,100482.97
2023-05-02T00:26:10.674Z,100481.75
2023-05-02T00:28:40.714Z,100489.00
2023-05-02T00:31:07.417Z,100487.94
2023-05-02T00:33:34.075Z,100495.09
2023-05-02T00:36:00.669Z,100497.84
2023-05-02T00:38:27.237Z,100499.81
2023-05-02T00:40:53.820Z,100502.31
2023-05-02T00:43:21.337Z,100504.84
2023-05-02T00:45:48.226Z,100508.53
2023-05-02T00:48:15.009Z,100509.53
2023-05-02T00:50:42.941Z,100503.75
2023-05-02T00:53:10.491Z,100506.28
2023-05-02T00:55:37.304Z,100508.34
2023-05-02T00:58:07.269Z,100508.34
2023-05-02T01:00:43.354Z,100513.84
2023-05-02T01:03:25.083Z,100508.75
2023-05-02T01:06:21.511Z,100520.50
2023-05-02T01:09:00.493Z,100518.94
2023-05-02T01:11:42.138Z,100520.97
2023-05-02T01:14:11.053Z,100524.78
2023-05-02T01:16:42.082Z,100522.41
2023-05-02T01:19:19.744Z,100522.78
2023-05-02T01:21:48.423Z,100530.28
2023-05-02T01:24:22.551Z,100530.28
2023-05-02T01:27:05.101Z,100535.81
2023-05-02T01:29:33.280Z,100529.44
2023-05-02T01:32:02.918Z,100532.16
2023-05-02T01:34:31.156Z,100541.06
2023-05-02T01:37:18.911Z,100539.72
2023-05-02T01:40:07.670Z,100545.47
2023-05-02T01:42:57.245Z,100549.84
2023-05-02T01:45:45.494Z,100550.13
2023-05-02T01:48:32.694Z,100553.50
2023-05-02T01:51:21.427Z,100559.72
2023-05-02T01:53:50.451Z,100563.47
2023-05-02T01:56:19.721Z,100572.16
2023-05-02T01:58:48.475Z,100564.63
2023-05-02T02:01:16.279Z,100571.53
2023-05-02T02:03:44.134Z,100582.06
2023-05-02T02:06:12.354Z,100572.63
2023-05-02T02:08:39.039Z,100585.03
2023-05-02T02:11:12.040Z,100583.31
2023-05-02T02:13:45.219Z,100584.84
2023-05-02T02:16:19.059Z,100586.59
2023-05-02T02:18:46.699Z,100591.91
2023-05-02T02:21:18.004Z,100596.22
2023-05-02T02:23:48.407Z,100594.69
2023-05-02T02:26:17.030Z,100602.53
2023-05-02T02:28:43.509Z,100601.75
2023-05-02T02:31:10.522Z,100611.59
2023-05-02T02:33:38.009Z,100611.59
2023-05-02T02:36:49.988Z,100612.78
2023-05-02T02:39:43.992Z,100620.78
2023-05-02T02:42:29.530Z,100620.91
2023-05-02T02:45:17.117Z,100621.13
2023-05-02T02:47:59.147Z,100613.63
2023-05-02T02:50:42.809Z,100626.81
2023-05-02T02:53:17.934Z,100627.06
2023-05-02T02:55:57.693Z,100622.84
2023-05-02T02:58:43.407Z,100625.66
2023-05-02T03:01:15.936Z,100628.44
2023-05-02T03:03:44.384Z,100634.84
2023-05-02T03:06:11.580Z,100640.03
2023-05-02T03:08:42.888Z,100635.00
2023-05-02T03:11:14.088Z,100636.16
2023-05-02T03:13:41.448Z,100634.59
2023-05-02T03:16:24.996Z,100637.31
2023-05-02T03:18:51.571Z,100649.56
2023-05-02T03:21:18.470Z,100645.28
2023-05-02T03:23:45.369Z,100647.28
2023-05-02T03:26:12.200Z,100656.91
2023-05-02T03:28:39.102Z,100657.78
2023-05-02T03:31:06.670Z,100650.94
2023-05-02T03:33:37.012Z,100660.50
2023-05-02T03:36:03.812Z,100658.06
2023-05-02T03:38:30.659Z,100659.19
2023-05-02T03:41:01.389Z,100662.81
2023-05-02T03:43:28.627Z,100667.31
2023-05-02T03:45:55.811Z,100670.09
2023-05-02T03:48:23.075Z,100673.50
2023-05-02T03:50:51.103Z,100679.88
2023-05-02T03:53:18.162Z,100672.94
2023-05-02T03:55:52.554Z,100682.56
2023-05-02T03:58:27.080Z,100680.81
2023-05-02T04:00:54.759Z,100688.59
2023-05-02T04:03:22.580Z,100699.28
2023-05-02T04:05:51.599Z,100698.47
2023-05-02T04:08:18.987Z,100699.59
2023-05-02T04:10:46.435Z,100701.44
2023-05-02T04:13:13.774Z,100705.66
2023-05-02T04:15:45.470Z,100706.66
2023-05-02T04:18:13.503Z,100718.78
2023-05-02T04:20:44.104Z,100731.81
2023-05-02T04:23:10.668Z,100730.34
2023-05-02T04:25:38.096Z,100739.75
2023-05-02T04:28:06.073Z,100737.88
2023-05-02T04:30:33.017Z,100752.44
2023-05-02T04:33:07.520Z,100756.06
2023-05-02T04:35:39.870Z,100756.81
2023-05-02T04:38:07.476Z,100755.91
2023-05-02T04:40:34.470Z,100760.38
2023-05-02T04:43:04.805Z,100767.19
2023-05-02T04:45:51.839Z,100777.53
2023-05-02T04:48:26.782Z,100772.88
2023-05-02T04:50:53.653Z,100774.66
2023-05-02T04:53:24.078Z,100774.53
2023-05-02T04:55:50.963Z,100768.56
2023-05-02T04:58:17.585Z,100777.22
2023-05-02T05:00:48.063Z,100780.59
2023-05-02T05:03:14.639Z,100786.88
2023-05-02T05:05:41.148Z,100784.84
2023-05-02T05:08:12.036Z,100789.03
2023-05-02T05:10:40.388Z,100793.25
2023-05-02T05:13:08.116Z,100794.78
2023-05-02T05:15:34.621Z,100805.06
2023-05-02T05:18:03.323Z,100799.84
2023-05-02T05:20:30.048Z,100795.50
2023-05-02T05:22:59.815Z,100805.63
2023-05-02T05:25:29.814Z,100809.81
2023-05-02T05:27:59.973Z,100813.22
2023-05-02T05:30:27.201Z,100821.69
2023-05-02T05:32:53.952Z,100829.47
2023-05-02T05:35:21.422Z,100828.38
2023-05-02T05:37:47.879Z,100829.88
2023-05-02T05:40:17.083Z,100829.50
2023-05-02T05:42:48.051Z,100833.78
2023-05-02T05:45:22.667Z,100838.94
2023-05-02T05:47:49.152Z,100843.97
2023-05-02T05:50:16.206Z,100849.91
2023-05-02T05:52:44.488Z,100850.72
2023-05-02T05:55:11.287Z,100857.88
2023-05-02T05:57:38.056Z,100853.16
2023-05-02T06:00:05.480Z,100857.88
2023-05-02T06:02:42.569Z,100856.97
2023-05-02T06:05:15.725Z,100856.22
2023-05-02T06:07:42.701Z,100856.41
2023-05-02T06:10:10.949Z,100859.94
2023-05-02T06:12:39.393Z,100864.78
2023-05-02T06:15:07.587Z,100865.44
2023-05-02T06:17:35.042Z,100872.97
2023-05-02T06:20:01.832Z,100874.69
2023-05-02T06:22:31.503Z,100881.63
2023-05-02T06:24:58.123Z,100879.53
2023-05-02T06:27:24.715Z,100883.09
2023-05-02T06:29:52.389Z,100879.91
2023-05-02T06:32:19.157Z,100882.69
2023-05-02T06:34:46.215Z,100881.78
2023-05-02T06:37:13.072Z,100883.56
2023-05-02T06:39:39.433Z,100888.16
2023-05-02T06:42:06.093Z,100893.97
2023-05-02T06:44:33.697Z,100893.47
2023-05-02T06:47:00.492Z,100895.50
2023-05-02T06:49:27.057Z,100899.47
2023-05-02T06:51:53.697Z,100901.97
2023-05-02T06:54:21.882Z,100900.34
2023-05-02T06:56:48.360Z,100907.47
2023-05-02T06:59:16.939Z,100907.47
2023-05-02T07:01:43.963Z,100908.94
2023-05-02T07:04:10.922Z,100915.91
2023-05-02T07:06:37.454Z,100918.28
2023-05-02T07:09:04.156Z,100909.75
2023-05-02T07:11:30.921Z,100916.50
2023-05-02T07:13:57.885Z,100917.34
2023-05-02T07:16:24.509Z,100924.38
2023-05-02T07:18:51.077Z,100917.84
2023-05-02T07:21:19.021Z,100916.44
2023-05-02T07:23:45.788Z,100908.47
2023-05-02T07:26:12.345Z,100905.38
2023-05-02T07:28:39.075Z,100914.47
2023-05-02T07:31:05.845Z,100909.81
2023-05-02T07:33:32.524Z,100913.72
2023-05-02T07:35:59.183Z,100917.84
2023-05-02T07:38:27.806Z,100919.38
2023-05-02T07:40:58.581Z,100913.91
2023-05-02T07:43:25.250Z,100916.75
2023-05-02T07:45:51.671Z,100917.66
2023-05-02T07:48:18.441Z,100911.44
2023-05-02T07:50:45.372Z,100920.25
2023-05-02T07:53:12.340Z,100918.97
2023-05-02T07:55:38.858Z,100919.81
2023-05-02T07:58:05.295Z,100923.25
2023-05-02T08:00:32.070Z,100923.63
2023-05-02T08:02:58.578Z,100922.31
2023-05-02T08:05:25.117Z,100918.53
2023-05-02T08:07:51.616Z,100930.25
2023-05-02T08:10:18.429Z,100928.66
2023-05-02T08:12:44.829Z,100927.91
2023-05-02T08:15:13.426Z,100937.59
2023-05-02T08:17:39.891Z,100939.03
2023-05-02T08:20:07.122Z,100948.66
2023-05-02T08:22:33.709Z,100938.22
2023-05-02T08:25:00.366Z,100946.31
2023-05-02T08:27:26.904Z,100952.38
2023-05-02T08:29:53.438Z,100947.66
2023-05-02T08:32:19.854Z,100939.91
2023-05-02T08:34:46.567Z,100934.22
2023-05-02T08:37:13.359Z,100941.84
2023-05-02T08:39:39.905Z,100940.16
2023-05-02T08:42:07.888Z,100946.38
2023-05-02T08:44:34.549Z,100942.97
2023-05-02T08:47:02.886Z,100943.47
2023-05-02T08:49:31.926Z,100946.78
2023-05-02T08:52:00.107Z,100957.97
2023-05-02T08:54:27.120Z,100961.25
2023-05-02T08:56:59.320Z,100955.84
2023-05-02T08:59:26.054Z,100975.25
2023-05-02T09:01:58.923Z,100966.59
2023-05-02T09:04:31.861Z,100978.22
2023-05-02T09:06:58.491Z,100980.06
2023-05-02T09:09:25.875Z,100989.44
2023-05-02T09:11:52.824Z,100978.53
2023-05-02T09:14:19.636Z,100993.13
2023-05-02T09:16:47.453Z,100987.13
2023-05-02T09:19:26.096Z,100984.38
2023-05-02T09:21:52.743Z,100986.19
2023-05-02T09:24:21.206Z,100987.41
2023-05-02T09:26:58.820Z,100996.47
2023-05-02T09:29:28.685Z,101000.13
2023-05-02T09:31:56.673Z,101001.50
2023-05-02T09:34:24.076Z,101006.47
2023-05-02T09:36:52.273Z,101005.97
2023-05-02T09:39:23.043Z,101011.00
2023-05-02T09:41:52.264Z,101006.38
2023-05-02T09:44:21.873Z,101003.03
2023-05-02T09:46:57.609Z,101012.91
2023-05-02T09:49:42.339Z,101020.16
2023-05-02T09:52:16.008Z,101012.88
2023-05-02T09:54:42.971Z,101018.44
2023-05-02T09:57:11.022Z,101014.97
2023-05-02T09:59:39.864Z,101016.19
2023-05-02T10:02:07.595Z,101012.56
2023-05-02T10:04:34.796Z,101019.00
2023-05-02T10:07:03.316Z,101016.09
2023-05-02T10:09:33.920Z,101017.25
2023-05-02T10:12:05.135Z,101023.69
2023-05-02T10:14:39.012Z,101025.00
2023-05-02T10:17:13.309Z,101027.25
2023-05-02T10:20:07.412Z,101028.97
2023-05-02T10:22:35.222Z,101020.09
2023-05-02T10:25:03.015Z,101014.38
2023-05-02T10:27:32.426Z,101007.22
2023-05-02T10:30:00.521Z,101012.72
2023-05-02T10:32:31.678Z,101009.19
2023-05-02T10:35:05.986Z,101002.19
2023-05-02T10:37:36.340Z,101004.81
2023-05-02T10:40:03.673Z,101013.63
2023-05-02T10:42:31.311Z,101010.38
2023-05-02T10:44:58.450Z,101003.13
2023-05-02T10:47:27.246Z,101019.06
2023-05-02T10:49:56.709Z,101014.09
2023-05-02T10:52:31.619Z,101007.31
2023-05-02T10:55:19.923Z,101000.38
2023-05-02T10:58:22.619Z,101000.72
2023-05-02T11:00:49.332Z,100995.94
2023-05-02T11:03:55.055Z,100996.34
2023-05-02T11:06:21.657Z,100995.06
2023-05-02T11:08:48.242Z,100996.56
2023-05-02T11:11:44.018Z,100992.75
2023-05-02T11:14:12.804Z,100998.28
2023-05-02T11:16:59.782Z,101001.22
2023-05-02T11:19:31.349Z,101002.16
2023-05-02T11:22:20.714Z,100998.47
2023-05-02T11:24:48.514Z,101011.34
2023-05-02T11:27:30.822Z,101002.69
2023-05-02T11:29:59.504Z,101002.09
2023-05-02T11:32:46.715Z,100997.84
2023-05-02T11:35:26.976Z,101008.19
2023-05-02T11:37:57.244Z,101001.31
2023-05-02T11:40:24.710Z,101006.19
2023-05-02T11:42:51.187Z,101005.38
2023-05-02T11:45:18.836Z,101000.25
2023-05-02T11:47:46.393Z,100994.09
2023-05-02T11:50:13.024Z,101006.84
2023-05-02T11:52:41.475Z,100993.00
2023-05-02T11:55:11.870Z,100987.00
2023-05-02T11:57:39.587Z,100981.06
2023-05-02T12:00:07.805Z,100985.25
2023-05-02T12:02:42.694Z,100984.44
2023-05-02T12:05:11.627Z,100991.84
2023-05-02T12:07:46.309Z,100987.78
2023-05-02T12:10:13.867Z,100984.06
2023-05-02T12:12:44.749Z,100995.66
2023-05-02T12:15:12.618Z,100994.03
2023-05-02T12:17:42.724Z,100988.53
2023-05-02T12:20:10.538Z,100997.72
2023-05-02T12:22:38.006Z,100994.00
2023-05-02T12:25:06.290Z,101003.94
2023-05-02T12:27:36.005Z,101002.28
2023-05-02T12:30:03.255Z,101012.31
2023-05-02T12:32:35.047Z,101009.28
2023-05-02T12:35:03.785Z,101006.44
2023-05-02T12:37:30.344Z,101006.44
2023-05-02T12:39:57.106Z,101001.22
2023-05-02T12:42:25.386Z,101000.75
2023-05-02T12:44:53.302Z,101006.22
2023-05-02T12:47:21.679Z,101005.22
2023-05-02T12:49:56.882Z,101002.69
2023-05-02T12:52:46.945Z,101000.75
2023-05-02T12:55:16.572Z,100995.38
2023-05-02T12:57:43.460Z,100998.44
2023-05-02T13:00:10.569Z,100990.13
2023-05-02T13:02:37.206Z,100990.50
2023-05-02T13:05:14.658Z,100978.25
2023-05-02T13:07:41.314Z,100987.13
2023-05-02T13:10:08.086Z,100992.13
2023-05-02T13:12:37.252Z,100986.09
2023-05-02T13:15:08.288Z,100993.25
2023-05-02T13:17:35.570Z,100983.97
2023-05-02T13:20:02.766Z,100984.53
2023-05-02T13:22:29.489Z,100976.75
2023-05-02T13:24:55.924Z,100983.22
2023-05-02T13:27:23.802Z,100986.38
2023-05-02T13:29:50.475Z,100978.78
2023-05-02T13:32:17.527Z,100967.69
2023-05-02T13:34:44.558Z,100967.53
2023-05-02T13:37:11.558Z,100964.84
2023-05-02T13:39:37.973Z,100968.53
2023-05-02T13:42:05.959Z,100976.56
2023-05-02T13:44:32.823Z,100972.94
2023-05-02T13:46:59.235Z,100972.44
2023-05-02T13:49:25.971Z,100975.66
2023-05-02T13:51:52.452Z,100977.25
2023-05-02T13:54:19.033Z,100973.28
2023-05-02T13:56:45.685Z,100977.25
2023-05-02T13:59:12.089Z,100983.69
2023-05-02T14:01:40.505Z,100988.88
2023-05-02T14:04:08.553Z,100984.72
2023-05-02T14:06:35.959Z,100986.72
2023-05-02T14:09:03.189Z,100989.31
2023-05-02T14:11:29.943Z,100989.06
2023-05-02T14:13:58.356Z,100992.34
2023-05-02T14:16:25.204Z,100987.00
2023-05-02T14:18:51.852Z,100995.16
2023-05-02T14:21:18.281Z,100997.25
2023-05-02T14:23:44.853Z,101004.03
2023-05-02T14:26:11.396Z,100996.09
2023-05-02T14:28:39.130Z,100990.19
2023-05-02T14:31:07.162Z,100994.81
2023-05-02T14:33:33.796Z,100996.31
2023-05-02T14:36:00.296Z,100996.84
2023-05-02T14:38:27.044Z,100994.81
2023-05-02T14:40:53.940Z,101000.59
2023-05-02T14:43:21.343Z,101009.09
2023-05-02T14:45:48.089Z,101000.53
2023-05-02T14:48:16.841Z,101009.50
2023-05-02T14:50:44.191Z,101007.19
2023-05-02T14:53:11.592Z,101015.50
2023-05-02T14:55:39.649Z,101011.25
2023-05-02T14:58:08.692Z,101018.44
2023-05-02T15:00:37.838Z,101014.66
2023-05-02T15:03:07.576Z,101015.53
2023-05-02T15:05:37.150Z,101009.13
2023-05-02T15:08:03.879Z,101012.88
2023-05-02T15:10:30.782Z,101009.47
2023-05-02T15:12:57.374Z,101015.03
2023-05-02T15:15:25.352Z,101009.09
2023-05-02T15:17:53.132Z,101021.09
2023-05-02T15:20:20.103Z,101017.38
2023-05-02T15:22:47.051Z,101014.63
2023-05-02T15:25:13.522Z,101017.94
2023-05-02T15:27:40.114Z,101024.53
2023-05-02T15:30:07.424Z,101027.59
2023-05-02T15:32:34.063Z,101033.84
2023-05-02T15:35:00.799Z,101029.81
2023-05-02T15:37:27.432Z,101039.94
2023-05-02T15:39:54.039Z,101029.66
2023-05-02T15:42:20.999Z,101017.88
2023-05-02T15:44:47.465Z,101030.53
2023-05-02T15:47:14.419Z,101029.81
2023-05-02T15:49:41.414Z,101019.00
2023-05-02T15:52:08.177Z,101017.56
2023-05-02T15:54:35.165Z,101024.38
2023-05-02T15:57:02.535Z,101011.78
2023-05-02T15:59:29.285Z,101023.50
2023-05-02T16:01:56.369Z,101023.47
2023-05-02T16:04:22.949Z,101020.69
2023-05-02T16:06:49.549Z,101025.44
2023-05-02T16:09:16.145Z,101020.19
2023-05-02T16:11:42.920Z,101023.09
2023-05-02T16:14:09.447Z,101021.78
2023-05-02T16:16:36.131Z,101021.81
2023-05-02T16:19:02.644Z,101017.97
2023-05-02T16:21:29.409Z,101032.19
2023-05-02T16:23:55.846Z,101028.66
2023-05-02T16:26:22.635Z,101018.84
2023-05-02T16:28:49.223Z,101014.31
2023-05-02T16:31:15.994Z,101021.50
2023-05-02T16:33:43.084Z,101019.16
2023-05-02T16:36:10.299Z,101022.59
2023-05-02T16:38:36.969Z,101030.63
2023-05-02T16:41:05.603Z,101031.75
2023-05-02T16:43:32.163Z,101029.72
2023-05-02T16:46:03.450Z,101029.97
2023-05-02T16:48:30.168Z,101035.56
2023-05-02T16:50:57.154Z,101029.91
2023-05-02T16:53:24.454Z,101032.09
2023-05-02T16:55:51.010Z,101033.97
2023-05-02T16:58:17.794Z,101025.88
2023-05-02T17:00:44.383Z,101032.00
2023-05-02T17:03:11.216Z,101028.75
2023-05-02T17:05:37.963Z,101032.88
2023-05-02T17:08:04.497Z,101038.31
2023-05-02T17:10:31.442Z,101042.75
2023-05-02T17:12:59.016Z,101044.34
2023-05-02T17:15:25.580Z,101044.31
2023-05-02T17:17:52.346Z,101041.78
2023-05-02T17:20:20.288Z,101054.19
2023-05-02T17:22:47.091Z,101048.22
2023-05-02T17:25:14.012Z,101055.97
2023-05-02T17:27:41.335Z,101051.59
2023-05-02T17:30:08.396Z,101056.81
2023-05-02T17:32:37.593Z,101061.91
2023-05-02T17:35:04.740Z,101060.75
2023-05-02T17:37:32.923Z,101067.88
2023-05-02T17:40:01.314Z,101072.63
2023-05-02T17:42:28.101Z,101069.31
2023-05-02T17:44:54.534Z,101082.75
2023-05-02T17:47:22.016Z,101082.81
2023-05-02T17:49:51.154Z,101084.06
2023-05-02T17:52:17.678Z,101089.88
2023-05-02T17:54:45.100Z,101091.91
2023-05-02T17:57:12.698Z,101098.34
2023-05-02T17:59:39.776Z,101097.78
2023-05-02T18:02:09.927Z,101105.34
2023-05-02T18:04:37.184Z,101098.09
2023-05-02T18:07:06.032Z,101102.25
2023-05-02T18:09:32.758Z,101102.53
2023-05-02T18:12:00.620Z,101098.09
2023-05-02T18:14:27.038Z,101102.34
2023-05-02T18:16:53.505Z,101103.63
2023-05-02T18:19:20.214Z,101095.88
2023-05-02T18:21:46.845Z,101102.69
2023-05-02T18:24:13.392Z,101121.34
2023-05-02T18:26:39.866Z,101120.34
2023-05-02T18:29:06.545Z,101120.28
2023-05-02T18:31:34.576Z,101122.53
2023-05-02T18:34:01.373Z,101127.72
2023-05-02T18:36:29.101Z,101134.16
2023-05-02T18:38:56.395Z,101133.59
2023-05-02T18:41:23.117Z,101135.16
2023-05-02T18:43:49.603Z,101144.19
2023-05-02T18:46:16.196Z,101154.88
2023-05-02T18:48:43.344Z,101152.28
2023-05-02T18:51:10.651Z,101155.03
2023-05-02T18:53:37.850Z,101167.63
2023-05-02T18:56:11.878Z,101161.16
2023-05-02T18:58:38.305Z,101158.63
2023-05-02T19:01:12.418Z,101170.75
2023-05-02T19:03:39.332Z,101176.56
2023-05-02T19:06:06.124Z,101174.63
2023-05-02T19:08:32.702Z,101185.00
2023-05-02T19:10:59.222Z,101188.91
2023-05-02T19:13:27.849Z,101195.59
2023-05-02T19:15:54.305Z,101194.22
2023-05-02T19:18:23.924Z,101204.91
2023-05-02T19:20:50.567Z,101211.03
2023-05-02T19:23:20.480Z,101207.38
2023-05-02T19:25:47.818Z,101213.72
2023-05-02T19:28:16.785Z,101216.16
2023-05-02T19:30:44.509Z,101222.75
2023-05-02T19:33:11.585Z,101234.00
2023-05-02T19:35:38.508Z,101236.25
2023-05-02T19:38:04.923Z,101235.97
2023-05-02T19:40:31.541Z,101242.28
2023-05-02T19:42:58.075Z,101249.28
2023-05-02T19:45:24.666Z,101253.78
2023-05-02T19:47:51.404Z,101254.63
2023-05-02T19:50:17.900Z,101256.16
2023-05-02T19:52:44.942Z,101258.47
2023-05-02T19:55:11.629Z,101256.03
2023-05-02T19:57:38.225Z,101268.31
2023-05-02T20:00:06.074Z,101260.50
2023-05-02T20:02:39.260Z,101264.53
2023-05-02T20:05:06.247Z,101266.09
2023-05-02T20:07:32.673Z,101270.56
2023-05-02T20:09:59.712Z,101272.94
2023-05-02T20:12:26.425Z,101272.31
2023-05-02T20:14:52.969Z,101269.31
2023-05-02T20:17:19.506Z,101279.50
2023-05-02T20:19:46.271Z,101273.69
2023-05-02T20:22:12.817Z,101282.59
2023-05-02T20:24:39.513Z,101288.44
2023-05-02T20:27:05.978Z,101294.19
2023-05-02T20:29:32.632Z,101295.41
2023-05-02T20:31:59.346Z,101297.38
2023-05-02T20:34:26.013Z,101297.97
2023-05-02T20:36:52.695Z,101298.50
2023-05-02T20:39:21.691Z,101291.56
2023-05-02T20:41:49.740Z,101307.19
2023-05-02T20:44:22.223Z,101306.47
2023-05-02T20:46:48.791Z,101302.00
2023-05-02T20:49:15.263Z,101303.88
2023-05-02T20:51:41.690Z,101312.38
2023-05-02T20:54:08.199Z,101305.78
2023-05-02T20:56:34.642Z,101304.38
2023-05-02T20:59:01.115Z,101301.72
2023-05-02T21:01:27.630Z,101304.66
2023-05-02T21:03:54.376Z,101306.78
2023-05-02T21:06:21.357Z,101308.41
2023-05-02T21:08:48.244Z,101305.81
2023-05-02T21:11:15.479Z,101314.91
2023-05-02T21:13:43.029Z,101316.53
2023-05-02T21:16:20.367Z,101314.53
2023-05-02T21:18:47.464Z,101317.34
2023-05-02T21:21:14.108Z,101321.47
2023-05-02T21:23:40.660Z,101325.28
2023-05-02T21:26:08.005Z,101322.59
2023-05-02T21:28:34.538Z,101327.00
2023-05-02T21:31:02.083Z,101327.81
2023-05-02T21:33:28.831Z,101328.78
2023-05-02T21:35:59.159Z,101333.63
2023-05-02T21:38:26.319Z,101334.44
2023-05-02T21:40:53.587Z,101343.50
2023-05-02T21:43:20.757Z,101342.31
2023-05-02T21:45:49.025Z,101341.16
2023-05-02T21:48:17.124Z,101341.44
2023-05-02T21:50:44.805Z,101346.84
2023-05-02T21:53:12.834Z,101349.44
2023-05-02T21:55:40.929Z,101352.22
2023-05-02T21:58:09.106Z,101347.91
2023-05-02T22:00:39.986Z,101342.66
2023-05-02T22:03:11.952Z,101344.16
2023-05-02T22:05:39.742Z,101340.75
2023-05-02T22:08:07.792Z,101341.09
2023-05-02T22:10:38.527Z,101345.44
2023-05-02T22:13:05.933Z,101338.72
2023-05-02T22:15:32.596Z,101339.03
2023-05-02T22:17:59.262Z,101343.19
2023-05-02T22:20:26.095Z,101337.88
2023-05-02T22:22:52.560Z,101340.56
2023-05-02T22:25:19.204Z,101338.38
2023-05-02T22:27:45.843Z,101340.25
2023-05-02T22:30:12.397Z,101347.31
2023-05-02T22:32:38.966Z,101341.25
2023-05-02T22:35:06.747Z,101350.72
2023-05-02T22:37:33.144Z,101340.00
2023-05-02T22:39:59.924Z,101349.16
2023-05-02T22:42:26.671Z,101342.50
2023-05-02T22:44:54.592Z,101347.00
2023-05-02T22:47:21.742Z,101346.91
2023-05-02T22:49:49.068Z,101352.16
2023-05-02T22:52:18.403Z,101351.69
2023-05-02T22:54:44.977Z,101353.16
2023-05-02T22:57:11.423Z,101344.69
2023-05-02T22:59:37.951Z,101345.31
2023-05-02T23:02:04.528Z,101353.03
2023-05-02T23:04:32.851Z,101361.94
2023-05-02T23:06:59.836Z,101366.63
2023-05-02T23:09:26.410Z,101374.59
2023-05-02T23:11:52.909Z,101381.38
2023-05-02T23:14:23.104Z,101374.56
2023-05-02T23:16:50.098Z,101365.69
2023-05-02T23:19:17.029Z,101375.28
2023-05-02T23:21:43.668Z,101375.28
2023-05-02T23:24:10.594Z,101383.06
2023-05-02T23:26:37.075Z,101378.75
2023-05-02T23:29:03.716Z,101370.03
2023-05-02T23:31:30.288Z,101368.19
2023-05-02T23:33:56.997Z,101369.16
2023-05-02T23:36:23.622Z,101375.03
2023-05-02T23:38:51.609Z,101374.53
2023-05-02T23:41:18.219Z,101374.25
2023-05-02T23:43:44.906Z,101381.16
2023-05-02T23:46:11.532Z,101387.31
2023-05-02T23:48:37.950Z,101377.78
2023-05-02T23:51:04.629Z,101390.81
2023-05-02T23:53:31.050Z,101383.91
2023-05-02T23:55:58.061Z,101378.00
2023-05-02T23:58:24.508Z,101379.00
